createdAt,value
2017-10-10T00:01:53.475Z,92.90
2017-10-10T00:04:26.548Z,92.90
2017-10-10T00:06:57.742Z,92.80
2017-10-10T00:09:28.149Z,93.00
2017-10-10T00:11:59.109Z,92.90
2017-10-10T00:14:29.690Z,92.80
2017-10-10T00:16:59.983Z,93.00
2017-10-10T00:19:30.408Z,93.00
2017-10-10T00:22:00.730Z,93.10
2017-10-10T00:24:31.256Z,93.20
2017-10-10T00:27:02.011Z,93.30
2017-10-10T00:29:32.442Z,93.10
2017-10-10T00:32:03.553Z,93.00
2017-10-10T00:34:33.658Z,93.00
2017-10-10T00:37:04.029Z,92.90
2017-10-10T00:39:34.295Z,93.00
2017-10-10T00:42:05.368Z,93.10
2017-10-10T00:44:36.097Z,93.10
2017-10-10T00:47:06.542Z,93.00
2017-10-10T00:49:36.750Z,93.00
2017-10-10T00:52:06.754Z,93.10
2017-10-10T00:54:36.950Z,93.10
2017-10-10T00:57:08.417Z,93.00
2017-10-10T00:59:38.789Z,93.00
2017-10-10T01:02:09.403Z,93.00
2017-10-10T01:04:39.564Z,93.10
2017-10-10T01:07:10.019Z,93.10
2017-10-10T01:09:40.971Z,93.40
2017-10-10T01:12:11.517Z,93.40
2017-10-10T01:14:41.812Z,93.20
2017-10-10T01:17:12.244Z,93.20
2017-10-10T01:19:42.672Z,93.30
2017-10-10T01:22:13.388Z,93.30
2017-10-10T01:24:43.981Z,93.70
2017-10-10T01:27:14.589Z,93.70
2017-10-10T01:29:44.798Z,93.40
2017-10-10T01:32:15.408Z,93.40
2017-10-10T01:34:45.915Z,93.50
2017-10-10T01:37:15.971Z,93.50
2017-10-10T01:39:46.252Z,93.50
2017-10-10T01:42:16.306Z,93.50
2017-10-10T01:44:46.232Z,93.50
2017-10-10T01:47:16.530Z,93.60
2017-10-10T01:49:47.014Z,93.70
2017-10-10T01:52:18.551Z,93.60
2017-10-10T01:54:48.615Z,93.60
2017-10-10T01:57:19.774Z,93.80
2017-10-10T01:59:50.139Z,93.70
2017-10-10T02:02:20.282Z,93.80
2017-10-10T02:04:50.470Z,94.10
2017-10-10T02:07:21.125Z,93.90
2017-10-10T02:09:51.290Z,94.00
2017-10-10T02:12:21.972Z,94.10
2017-10-10T02:14:52.141Z,94.10
2017-10-10T02:17:22.260Z,94.10
2017-10-10T02:19:52.724Z,94.30
2017-10-10T02:22:22.668Z,94.40
2017-10-10T02:24:53.075Z,94.60
2017-10-10T02:27:23.253Z,94.90
2017-10-10T02:29:53.492Z,95.20
2017-10-10T02:32:23.942Z,95.40
2017-10-10T02:34:54.333Z,95.60
2017-10-10T02:37:24.767Z,95.70
2017-10-10T02:39:55.228Z,95.90
2017-10-10T02:42:25.821Z,96.10
2017-10-10T02:44:56.345Z,96.30
2017-10-10T02:47:26.465Z,96.30
2017-10-10T02:49:57.616Z,96.30
2017-10-10T02:52:28.016Z,96.30
2017-10-10T02:54:59.119Z,96.20
2017-10-10T02:57:30.091Z,96.10
2017-10-10T03:00:01.095Z,96.00
2017-10-10T03:02:31.067Z,96.00
2017-10-10T03:05:01.266Z,96.00
2017-10-10T03:07:32.406Z,96.10
2017-10-10T03:10:02.515Z,95.80
2017-10-10T03:12:33.031Z,95.80
2017-10-10T03:15:03.228Z,95.70
2017-10-10T03:17:33.731Z,95.80
2017-10-10T03:20:04.007Z,95.90
2017-10-10T03:22:34.384Z,96.00
2017-10-10T03:25:04.802Z,96.30
2017-10-10T03:27:34.712Z,96.20
2017-10-10T03:30:04.836Z,96.30
2017-10-10T03:32:34.838Z,96.30
2017-10-10T03:35:05.937Z,96.40
2017-10-10T03:37:36.458Z,96.40
2017-10-10T03:40:06.618Z,96.70
2017-10-10T03:42:37.796Z,96.90
2017-10-10T03:45:08.130Z,96.90
2017-10-10T03:47:38.204Z,96.90
2017-10-10T03:50:09.140Z,97.00
2017-10-10T03:52:40.001Z,97.10
2017-10-10T03:55:10.151Z,97.10
2017-10-10T03:57:40.395Z,97.10
2017-10-10T04:00:10.605Z,97.10
2017-10-10T04:02:40.805Z,97.20
2017-10-10T04:05:11.139Z,97.20
2017-10-10T04:07:41.688Z,97.20
2017-10-10T04:10:11.925Z,97.30
2017-10-10T04:12:41.917Z,97.40
2017-10-10T04:15:12.078Z,97.50
2017-10-10T04:17:43.185Z,97.90
2017-10-10T04:20:13.202Z,97.90
2017-10-10T04:22:43.142Z,98.10
2017-10-10T04:25:14.242Z,98.50
2017-10-10T04:27:44.411Z,98.50
2017-10-10T04:30:15.426Z,98.70
2017-10-10T04:32:45.292Z,98.70
2017-10-10T04:35:15.509Z,99.00
2017-10-10T04:37:45.889Z,99.00
2017-10-10T04:40:16.076Z,99.00
2017-10-10T04:42:46.361Z,99.10
2017-10-10T04:45:16.982Z,99.20
2017-10-10T04:47:47.698Z,99.60
2017-10-10T04:50:19.050Z,99.60
2017-10-10T04:52:50.174Z,99.60
2017-10-10T04:55:21.036Z,99.70
2017-10-10T04:57:52.475Z,99.70
2017-10-10T05:00:23.366Z,99.80
2017-10-10T05:02:53.563Z,99.90
2017-10-10T05:05:25.849Z,99.90
2017-10-10T05:07:56.606Z,99.90
2017-10-10T05:10:27.962Z,99.90
2017-10-10T05:12:58.600Z,99.90
2017-10-10T05:15:29.189Z,99.90
2017-10-10T05:18:00.786Z,99.90
2017-10-10T05:20:32.760Z,99.90
2017-10-10T05:23:03.845Z,99.90
2017-10-10T05:25:34.945Z,99.90
2017-10-10T05:28:05.861Z,99.90
2017-10-10T05:30:36.997Z,99.90
2017-10-10T05:33:07.734Z,99.90
2017-10-10T05:35:38.768Z,99.90
2017-10-10T05:38:10.307Z,99.90
2017-10-10T05:40:41.107Z,99.90
2017-10-10T05:43:11.999Z,99.90
2017-10-10T05:45:43.568Z,99.90
2017-10-10T05:48:16.333Z,99.90
2017-10-10T05:50:47.336Z,99.90
2017-10-10T05:53:18.420Z,99.90
2017-10-10T05:55:49.091Z,99.90
2017-10-10T05:58:20.557Z,99.90
2017-10-10T06:00:52.206Z,99.90
2017-10-10T06:03:24.373Z,99.90
2017-10-10T06:05:54.669Z,99.90
2017-10-10T06:08:25.755Z,99.90
2017-10-10T06:10:56.401Z,99.90
2017-10-10T06:13:27.726Z,99.90
2017-10-10T06:15:59.213Z,99.90
2017-10-10T06:18:32.323Z,99.90
2017-10-10T06:21:04.363Z,99.90
2017-10-10T06:23:35.428Z,99.90
2017-10-10T06:26:05.864Z,99.90
2017-10-10T06:28:38.159Z,99.90
2017-10-10T06:31:10.737Z,99.90
2017-10-10T06:33:41.745Z,99.90
2017-10-10T06:36:12.406Z,99.90
2017-10-10T06:38:43.679Z,99.90
2017-10-10T06:41:14.333Z,99.90
2017-10-10T06:43:45.259Z,99.90
2017-10-10T06:46:16.345Z,99.90
2017-10-10T06:48:47.764Z,99.90
2017-10-10T06:51:18.853Z,99.90
2017-10-10T06:53:50.237Z,99.80
2017-10-10T06:56:21.926Z,99.70
2017-10-10T06:58:53.258Z,99.60
2017-10-10T07:01:24.941Z,99.70
2017-10-10T07:03:55.928Z,99.70
2017-10-10T07:06:26.605Z,99.70
2017-10-10T07:08:58.249Z,99.70
2017-10-10T07:11:28.987Z,99.70
2017-10-10T07:13:59.909Z,99.50
2017-10-10T07:16:31.128Z,99.50
2017-10-10T07:19:02.869Z,99.50
2017-10-10T07:21:33.749Z,99.60
2017-10-10T07:24:04.559Z,99.60
2017-10-10T07:26:35.516Z,99.50
2017-10-10T07:29:06.534Z,99.40
2017-10-10T07:31:37.689Z,99.30
2017-10-10T07:34:08.855Z,99.30
2017-10-10T07:36:40.695Z,99.20
2017-10-10T07:39:11.516Z,99.30
2017-10-10T07:41:42.842Z,99.30
2017-10-10T07:44:14.094Z,99.10
2017-10-10T07:46:45.524Z,99.20
2017-10-10T07:49:17.330Z,98.80
2017-10-10T07:51:48.258Z,98.80
2017-10-10T07:54:19.229Z,98.60
2017-10-10T07:56:50.546Z,98.60
2017-10-10T07:59:21.847Z,98.60
2017-10-10T08:01:53.707Z,98.40
2017-10-10T08:04:24.933Z,98.40
2017-10-10T08:06:56.022Z,98.30
2017-10-10T08:09:27.033Z,98.20
2017-10-10T08:11:57.877Z,98.10
2017-10-10T08:14:28.355Z,97.90
2017-10-10T08:16:59.094Z,97.60
2017-10-10T08:19:30.079Z,97.50
2017-10-10T08:22:01.295Z,97.60
2017-10-10T08:24:32.935Z,97.50
2017-10-10T08:27:03.768Z,97.50
2017-10-10T08:29:34.243Z,97.50
2017-10-10T08:32:06.383Z,97.60
2017-10-10T08:34:37.325Z,97.60
2017-10-10T08:37:08.352Z,97.60
2017-10-10T08:39:40.673Z,97.50
2017-10-10T08:42:12.130Z,97.50
2017-10-10T08:44:42.780Z,96.90
2017-10-10T08:47:13.989Z,97.00
2017-10-10T08:49:45.741Z,97.00
2017-10-10T08:52:17.916Z,96.70
2017-10-10T08:54:51.785Z,96.70
2017-10-10T08:57:22.994Z,96.70
2017-10-10T08:59:54.066Z,96.60
2017-10-10T09:02:26.195Z,96.50
2017-10-10T09:04:56.967Z,96.70
2017-10-10T09:07:28.552Z,96.00
2017-10-10T09:10:00.259Z,95.50
2017-10-10T09:12:31.106Z,95.50
2017-10-10T09:15:02.116Z,95.10
2017-10-10T09:17:32.717Z,95.00
2017-10-10T09:20:03.502Z,95.40
2017-10-10T09:22:34.989Z,95.00
2017-10-10T09:25:06.295Z,94.60
2017-10-10T09:27:37.127Z,94.60
2017-10-10T09:30:08.104Z,94.40
2017-10-10T09:32:39.346Z,94.10
2017-10-10T09:35:10.150Z,94.40
2017-10-10T09:37:42.088Z,92.80
2017-10-10T09:40:12.973Z,92.70
2017-10-10T09:42:43.989Z,92.90
2017-10-10T09:45:15.377Z,93.40
2017-10-10T09:47:47.020Z,93.60
2017-10-10T09:50:18.215Z,93.60
2017-10-10T09:52:49.300Z,93.30
2017-10-10T09:55:19.834Z,92.90
2017-10-10T09:57:51.868Z,92.50
2017-10-10T10:00:23.856Z,92.90
2017-10-10T10:02:54.759Z,92.90
2017-10-10T10:05:26.084Z,92.60
2017-10-10T10:07:57.747Z,92.80
2017-10-10T10:10:28.673Z,92.80
2017-10-10T10:13:00.875Z,93.30
2017-10-10T10:15:31.491Z,93.30
2017-10-10T10:18:02.113Z,93.40
2017-10-10T10:20:32.756Z,93.20
2017-10-10T10:23:03.548Z,93.10
2017-10-10T10:25:34.998Z,93.00
2017-10-10T10:28:06.168Z,93.10
2017-10-10T10:30:36.977Z,93.30
2017-10-10T10:33:08.758Z,92.60
2017-10-10T10:35:40.240Z,92.00
2017-10-10T10:38:11.420Z,92.00
2017-10-10T10:40:42.491Z,91.70
2017-10-10T10:43:13.568Z,90.90
2017-10-10T10:45:44.685Z,91.10
2017-10-10T10:48:16.171Z,90.90
2017-10-10T10:50:46.880Z,90.90
2017-10-10T10:53:18.731Z,90.10
2017-10-10T10:55:49.621Z,90.10
2017-10-10T10:58:20.372Z,90.50
2017-10-10T11:00:51.497Z,89.90
2017-10-10T11:03:23.147Z,88.30
2017-10-10T11:05:53.832Z,87.80
2017-10-10T11:08:24.730Z,87.70
2017-10-10T11:10:55.930Z,86.90
2017-10-10T11:13:27.346Z,85.30
2017-10-10T11:15:58.856Z,86.00
2017-10-10T11:18:29.919Z,86.00
2017-10-10T11:21:00.226Z,85.50
2017-10-10T11:23:32.405Z,84.90
2017-10-10T11:26:03.901Z,84.70
2017-10-10T11:28:35.735Z,83.90
2017-10-10T11:31:06.832Z,81.50
2017-10-10T11:33:37.756Z,81.50
2017-10-10T11:36:09.729Z,81.80
2017-10-10T11:38:40.637Z,80.50
2017-10-10T11:41:12.480Z,79.40
2017-10-10T11:43:43.836Z,77.70
2017-10-10T11:46:14.642Z,77.70
2017-10-10T11:48:45.491Z,78.00
2017-10-10T11:51:17.221Z,79.40
2017-10-10T11:53:48.995Z,79.50
2017-10-10T11:56:19.684Z,79.50
2017-10-10T11:58:51.531Z,78.30
2017-10-10T12:01:23.320Z,77.50
2017-10-10T12:03:54.344Z,77.50
2017-10-10T12:06:24.862Z,77.60
2017-10-10T12:08:56.016Z,78.50
2017-10-10T12:11:27.004Z,79.40
2017-10-10T12:13:58.544Z,78.70
2017-10-10T12:16:29.323Z,77.90
2017-10-10T12:19:00.699Z,78.70
2017-10-10T12:21:31.638Z,79.00
2017-10-10T12:24:04.284Z,79.50
2017-10-10T12:26:35.028Z,79.50
2017-10-10T12:29:06.918Z,80.60
2017-10-10T12:31:39.193Z,81.40
2017-10-10T12:34:10.018Z,81.30
2017-10-10T12:36:40.577Z,81.90
2017-10-10T12:39:11.869Z,85.20
2017-10-10T12:41:42.430Z,87.40
2017-10-10T12:44:13.215Z,89.70
2017-10-10T12:46:44.739Z,90.30
2017-10-10T12:49:16.474Z,90.60
2017-10-10T12:51:47.159Z,90.60
2017-10-10T12:54:18.163Z,90.80
2017-10-10T12:56:50.094Z,90.60
2017-10-10T12:59:21.468Z,91.20
2017-10-10T13:01:52.427Z,91.40
2017-10-10T13:04:23.113Z,91.40
2017-10-10T13:06:54.277Z,92.00
2017-10-10T13:09:25.378Z,91.80
2017-10-10T13:11:56.550Z,91.90
2017-10-10T13:14:27.300Z,91.70
2017-10-10T13:16:58.139Z,91.50
2017-10-10T13:19:29.019Z,90.80
2017-10-10T13:21:59.845Z,90.70
2017-10-10T13:24:31.400Z,90.30
2017-10-10T13:27:02.232Z,90.20
2017-10-10T13:29:33.117Z,90.20
2017-10-10T13:32:03.672Z,90.10
2017-10-10T13:34:34.492Z,90.00
2017-10-10T13:37:05.329Z,90.00
2017-10-10T13:39:36.478Z,89.60
2017-10-10T13:42:08.168Z,89.90
2017-10-10T13:44:39.453Z,90.00
2017-10-10T13:47:10.341Z,90.10
2017-10-10T13:49:40.907Z,89.20
2017-10-10T13:52:11.921Z,89.90
2017-10-10T13:54:44.043Z,88.70
2017-10-10T13:57:14.949Z,88.70
2017-10-10T13:59:46.225Z,87.90
2017-10-10T14:02:16.666Z,87.90
2017-10-10T14:04:46.707Z,87.00
2017-10-10T14:07:17.314Z,86.30
2017-10-10T14:09:47.987Z,86.80
2017-10-10T14:12:19.775Z,87.30
2017-10-10T14:14:51.136Z,86.00
2017-10-10T14:17:22.040Z,86.00
2017-10-10T14:19:53.670Z,85.40
2017-10-10T14:22:24.972Z,86.20
2017-10-10T14:24:56.322Z,86.80
2017-10-10T14:27:26.835Z,86.80
2017-10-10T14:29:57.839Z,87.50
2017-10-10T14:32:28.653Z,87.40
2017-10-10T14:35:00.711Z,87.40
2017-10-10T14:37:31.189Z,86.30
2017-10-10T14:40:02.747Z,87.40
2017-10-10T14:42:33.518Z,87.50
2017-10-10T14:45:03.914Z,88.10
2017-10-10T14:47:35.297Z,88.70
2017-10-10T14:50:08.861Z,88.60
2017-10-10T14:52:39.671Z,88.60
2017-10-10T14:55:11.708Z,89.30
2017-10-10T14:57:42.310Z,89.40
2017-10-10T15:00:14.468Z,90.20
2017-10-10T15:02:46.415Z,90.10
2017-10-10T15:05:16.688Z,90.40
2017-10-10T15:07:47.241Z,90.50
2017-10-10T15:10:17.895Z,90.70
2017-10-10T15:12:49.356Z,90.90
2017-10-10T15:15:20.480Z,91.10
2017-10-10T15:17:52.338Z,91.30
2017-10-10T15:20:22.887Z,91.40
2017-10-10T15:22:53.318Z,91.40
2017-10-10T15:25:23.724Z,91.60
2017-10-10T15:27:54.579Z,91.60
2017-10-10T15:30:25.302Z,91.70
2017-10-10T15:32:55.982Z,91.70
2017-10-10T15:35:26.541Z,91.50
2017-10-10T15:37:57.150Z,91.60
2017-10-10T15:40:27.389Z,91.60
2017-10-10T15:42:58.265Z,91.60
2017-10-10T15:45:29.124Z,91.60
2017-10-10T15:47:59.975Z,91.60
2017-10-10T15:50:31.184Z,91.80
2017-10-10T15:53:01.644Z,91.80
2017-10-10T15:55:32.151Z,91.90
2017-10-10T15:58:02.749Z,92.00
2017-10-10T16:00:33.540Z,92.10
2017-10-10T16:03:04.299Z,92.20
2017-10-10T16:05:35.417Z,92.60
2017-10-10T16:08:06.245Z,92.40
2017-10-10T16:10:37.387Z,92.60
2017-10-10T16:13:08.167Z,92.40
2017-10-10T16:15:39.189Z,92.50
2017-10-10T16:18:10.109Z,92.50
2017-10-10T16:20:40.708Z,92.50
2017-10-10T16:23:11.740Z,92.50
2017-10-10T16:25:42.534Z,92.60
2017-10-10T16:28:13.630Z,92.80
2017-10-10T16:30:44.036Z,92.80
2017-10-10T16:33:15.053Z,92.90
2017-10-10T16:35:45.976Z,93.00
2017-10-10T16:38:16.762Z,93.10
2017-10-10T16:40:47.833Z,93.10
2017-10-10T16:43:18.559Z,93.20
2017-10-10T16:45:49.949Z,93.40
2017-10-10T16:48:21.574Z,93.50
2017-10-10T16:50:53.117Z,93.60
2017-10-10T16:53:23.672Z,93.60
2017-10-10T16:55:54.461Z,93.70
2017-10-10T16:58:25.476Z,93.80
2017-10-10T17:00:56.881Z,93.80
2017-10-10T17:03:27.507Z,93.80
2017-10-10T17:05:57.763Z,93.80
2017-10-10T17:08:29.327Z,93.90
2017-10-10T17:11:00.186Z,94.00
2017-10-10T17:13:30.690Z,94.10
2017-10-10T17:16:03.400Z,94.10
2017-10-10T17:18:34.219Z,94.10
2017-10-10T17:21:05.941Z,94.20
2017-10-10T17:23:37.581Z,94.10
2017-10-10T17:26:08.954Z,94.10
2017-10-10T17:28:39.363Z,94.00
2017-10-10T17:31:10.700Z,94.10
2017-10-10T17:33:41.401Z,94.10
2017-10-10T17:36:11.958Z,94.10
2017-10-10T17:38:43.200Z,94.10
2017-10-10T17:41:14.388Z,94.10
2017-10-10T17:43:45.805Z,94.10
2017-10-10T17:46:16.417Z,94.10
2017-10-10T17:48:47.437Z,94.10
2017-10-10T17:51:18.205Z,94.10
2017-10-10T17:53:50.134Z,94.20
2017-10-10T17:56:21.928Z,94.50
2017-10-10T17:58:52.625Z,94.20
2017-10-10T18:01:23.633Z,94.30
2017-10-10T18:03:55.332Z,94.30
2017-10-10T18:06:26.714Z,94.30
2017-10-10T18:08:58.356Z,94.30
2017-10-10T18:11:29.330Z,94.20
2017-10-10T18:14:00.191Z,94.20
2017-10-10T18:16:32.557Z,94.10
2017-10-10T18:19:03.545Z,94.30
2017-10-10T18:21:34.956Z,94.70
2017-10-10T18:24:05.447Z,94.50
2017-10-10T18:26:36.765Z,94.50
2017-10-10T18:29:07.846Z,94.50
2017-10-10T18:31:39.297Z,94.60
2017-10-10T18:34:10.156Z,94.60
2017-10-10T18:36:40.996Z,94.60
2017-10-10T18:39:12.320Z,94.70
2017-10-10T18:41:43.931Z,94.70
2017-10-10T18:44:14.896Z,94.70
2017-10-10T18:46:47.277Z,94.80
2017-10-10T18:49:18.576Z,94.80
2017-10-10T18:51:50.398Z,94.80
2017-10-10T18:54:22.844Z,94.80
2017-10-10T18:56:54.670Z,94.80
2017-10-10T18:59:25.812Z,94.80
2017-10-10T19:01:56.324Z,94.80
2017-10-10T19:04:27.057Z,94.80
2017-10-10T19:06:57.946Z,94.80
2017-10-10T19:09:29.534Z,94.60
2017-10-10T19:12:01.079Z,94.70
2017-10-10T19:14:32.771Z,94.60
2017-10-10T19:17:03.837Z,94.60
2017-10-10T19:19:35.024Z,94.80
2017-10-10T19:22:06.607Z,94.50
2017-10-10T19:24:37.896Z,94.50
2017-10-10T19:27:10.153Z,94.50
2017-10-10T19:29:40.994Z,94.50
2017-10-10T19:32:13.094Z,94.50
2017-10-10T19:34:44.305Z,94.50
2017-10-10T19:37:15.929Z,94.50
2017-10-10T19:39:46.840Z,94.30
2017-10-10T19:42:19.033Z,94.20
2017-10-10T19:44:50.744Z,94.50
2017-10-10T19:47:22.917Z,94.50
2017-10-10T19:49:54.960Z,94.40
2017-10-10T19:52:26.655Z,94.40
2017-10-10T19:54:57.671Z,94.50
2017-10-10T19:57:29.588Z,94.40
2017-10-10T20:00:01.195Z,94.30
2017-10-10T20:02:31.829Z,94.40
2017-10-10T20:05:02.812Z,94.40
2017-10-10T20:07:33.973Z,94.30
2017-10-10T20:10:06.500Z,94.40
2017-10-10T20:12:37.714Z,94.40
2017-10-10T20:15:08.232Z,94.40
2017-10-10T20:17:40.731Z,94.50
2017-10-10T20:20:12.281Z,94.50
2017-10-10T20:22:43.221Z,94.50
2017-10-10T20:27:39.300Z,94.50
2017-10-10T20:30:10.585Z,94.60
2017-10-10T20:32:42.504Z,95.00
2017-10-10T20:35:14.518Z,94.70
2017-10-10T20:37:45.958Z,94.80
2017-10-10T20:40:16.764Z,94.70
2017-10-10T20:42:48.669Z,94.70
2017-10-10T20:45:20.823Z,94.70
2017-10-10T20:47:53.288Z,94.60
2017-10-10T20:50:26.051Z,94.70
2017-10-10T20:52:57.684Z,94.60
2017-10-10T20:55:28.844Z,94.60
2017-10-10T20:58:00.804Z,94.60
2017-10-10T21:00:31.937Z,94.60
2017-10-10T21:03:03.395Z,94.70
2017-10-10T21:05:34.867Z,94.70
2017-10-10T21:08:05.808Z,94.70
2017-10-10T21:10:36.799Z,94.70
2017-10-10T21:13:07.807Z,94.80
2017-10-10T21:15:40.259Z,95.00
2017-10-10T21:18:11.759Z,95.00
2017-10-10T21:20:42.792Z,95.00
2017-10-10T21:23:14.052Z,95.10
2017-10-10T21:25:45.234Z,95.20
2017-10-10T21:28:16.682Z,95.30
2017-10-10T21:30:48.513Z,95.50
2017-10-10T21:33:19.486Z,95.30
2017-10-10T21:35:50.323Z,95.40
2017-10-10T21:38:22.056Z,95.50
2017-10-10T21:40:53.419Z,95.50
2017-10-10T21:43:24.995Z,95.60
2017-10-10T21:45:56.033Z,95.70
2017-10-10T21:48:27.249Z,96.00
2017-10-10T21:50:59.085Z,95.80
2017-10-10T21:53:30.613Z,95.70
2017-10-10T21:56:01.885Z,95.60
2017-10-10T21:58:33.195Z,95.60
2017-10-10T22:01:04.454Z,95.60
2017-10-10T22:03:35.656Z,95.60
2017-10-10T22:06:07.168Z,95.50
2017-10-10T22:08:38.161Z,95.50
2017-10-10T22:11:09.243Z,95.40
2017-10-10T22:13:40.870Z,95.20
2017-10-10T22:16:12.839Z,95.40
2017-10-10T22:18:44.679Z,95.50
2017-10-10T22:21:16.409Z,95.50
2017-10-10T22:23:47.561Z,95.50
2017-10-10T22:26:18.821Z,95.50
2017-10-10T22:28:49.789Z,95.50
2017-10-10T22:31:21.879Z,95.60
2017-10-10T22:33:53.396Z,95.90
2017-10-10T22:36:24.906Z,95.70
2017-10-10T22:38:55.720Z,95.70
2017-10-10T22:41:26.752Z,95.80
2017-10-10T22:43:57.970Z,96.00
2017-10-10T22:46:29.131Z,96.00
2017-10-10T22:49:00.126Z,96.10
2017-10-10T22:51:31.140Z,96.10
2017-10-10T22:54:02.534Z,96.20
2017-10-10T22:56:33.594Z,96.20
2017-10-10T22:59:04.886Z,96.30
2017-10-10T23:01:36.200Z,96.40
2017-10-10T23:04:06.789Z,96.40
2017-10-10T23:06:37.842Z,96.30
2017-10-10T23:09:09.433Z,96.10
2017-10-10T23:11:40.582Z,96.10
2017-10-10T23:14:12.378Z,96.00
2017-10-10T23:16:43.457Z,95.90
2017-10-10T23:19:15.954Z,95.80
2017-10-10T23:21:48.070Z,95.70
2017-10-10T23:24:19.828Z,95.70
2017-10-10T23:26:51.410Z,95.80
2017-10-10T23:29:22.643Z,95.80
2017-10-10T23:31:54.300Z,95.80
2017-10-10T23:34:25.030Z,96.10
2017-10-10T23:36:56.838Z,95.90
2017-10-10T23:39:27.625Z,95.90
2017-10-10T23:41:59.732Z,96.00
2017-10-10T23:44:31.683Z,96.00
2017-10-10T23:47:02.760Z,96.10
2017-10-10T23:49:33.550Z,96.10
2017-10-10T23:52:04.324Z,96.10
2017-10-10T23:54:35.546Z,96.10
2017-10-10T23:57:06.502Z,96.10
2017-10-10T23:59:37.558Z,96.20
